Terminal Aerodrome Forecast
Issued by NWS Grand Junction, CO

Home | Current Version | Previous Version | Text Only | Print | Product List | Glossary On
Versions: 1 2 3 4 5 6 7 8 9 10 11 12 13 14 15 16 17 18 19
000
FTUS45 KGJT 280107 AAC
TAFGJT
TAF AMD
KGJT 280107Z 2801/2824 13012KT P6SM SCT140 BKN200
     FM280230 14007KT P6SM VCSH BKN130
     FM280500 11007KT P6SM VCTS BKN120CB
     FM281200 10006KT P6SM BKN120
     FM281700 19004KT P6SM SCT250
     FM282000 27005KT P6SM SCT250=

USA.gov is the U.S. government's official web portal to all federal, state and local government web resources and services.